Hurley, New York
Current Conditions -  °F | °C
As of 3:23 PM on Monday 26 Jan 2015 (Local Time) from KPOU Reporting Station
Light Snow Light Snow  
Wind Chill:   Ceiling: 1900
Heat Index: 20°   Visibility: 0.75mi
Dew Point: 12°   Wind: 10mph
Humidity: 71%   Direction: 360°N
Pressure: 29.95"   Gusts: NA
Location:  41.93°N, 74.06°W
Report Text: KPOU 262023Z 36009KT 3/4SM -SN VV019 M07/M11 A2995 RMK AO2 P0000 T10671111
Loading
Personal Weather Stations






























Interactive Weather Map New forecast layout! Learn more

10-Day Weather Forecast

Advertisements
Track Severe Weather on mobile